sensor_id;sensor_type;location;lat;lon;timestamp;temperature;humidity
13256;DHT22;37913;48.370;10.930;2023-02-01T00:00:27;3.50;99.90
13256;DHT22;37913;48.370;10.930;2023-02-01T00:02:55;3.50;99.90
13256;DHT22;37913;48.370;10.930;2023-02-01T00:05:22;3.40;99.90
13256;DHT22;37913;48.370;10.930;2023-02-01T00:07:49;3.70;99.90
13256;DHT22;37913;48.370;10.930;2023-02-01T00:10:16;3.30;99.90
13256;DHT22;37913;48.370;10.930;2023-02-01T00:12:44;3.30;99.90
13256;DHT22;37913;48.370;10.930;2023-02-01T00:15:11;3.30;99.90
13256;DHT22;37913;48.370;10.930;2023-02-01T00:17:37;3.20;99.90
13256;DHT22;37913;48.370;10.930;2023-02-01T00:20:07;3.20;99.90
13256;DHT22;37913;48.370;10.930;2023-02-01T00:22:35;3.10;99.90
13256;DHT22;37913;48.370;10.930;2023-02-01T00:25:02;3.10;99.90
13256;DHT22;37913;48.370;10.930;2023-02-01T00:27:29;3.00;99.90
13256;DHT22;37913;48.370;10.930;2023-02-01T00:29:56;3.00;99.90
13256;DHT22;37913;48.370;10.930;2023-02-01T00:32:23;2.90;99.90
13256;DHT22;37913;48.370;10.930;2023-02-01T00:34:50;2.90;99.90
13256;DHT22;37913;48.370;10.930;2023-02-01T00:37:18;2.90;99.90
13256;DHT22;37913;48.370;10.930;2023-02-01T00:39:45;3.10;99.90
13256;DHT22;37913;48.370;10.930;2023-02-01T00:42:12;2.90;99.90
13256;DHT22;37913;48.370;10.930;2023-02-01T00:44:39;2.90;99.90
13256;DHT22;37913;48.370;10.930;2023-02-01T00:47:06;2.80;99.90
13256;DHT22;37913;48.370;10.930;2023-02-01T00:49:33;2.80;99.90
13256;DHT22;37913;48.370;10.930;2023-02-01T00:51:59;2.70;99.90
13256;DHT22;37913;48.370;10.930;2023-02-01T00:54:28;3.50;99.90
13256;DHT22;37913;48.370;10.930;2023-02-01T00:56:55;2.60;99.90
13256;DHT22;37913;48.370;10.930;2023-02-01T00:59:22;2.70;99.90
13256;DHT22;37913;48.370;10.930;2023-02-01T01:01:49;2.70;99.90
13256;DHT22;37913;48.370;10.930;2023-02-01T01:04:15;2.70;99.90
13256;DHT22;37913;48.370;10.930;2023-02-01T01:06:42;2.70;99.90
13256;DHT22;37913;48.370;10.930;2023-02-01T01:09:09;3.00;99.90
13256;DHT22;37913;48.370;10.930;2023-02-01T01:11:38;2.60;99.90
13256;DHT22;37913;48.370;10.930;2023-02-01T01:14:08;2.70;99.90
13256;DHT22;37913;48.370;10.930;2023-02-01T01:16:36;2.70;99.90
13256;DHT22;37913;48.370;10.930;2023-02-01T01:19:03;2.60;99.90
13256;DHT22;37913;48.370;10.930;2023-02-01T01:21:31;2.60;99.90
13256;DHT22;37913;48.370;10.930;2023-02-01T01:23:58;2.60;99.90
13256;DHT22;37913;48.370;10.930;2023-02-01T01:26:27;2.50;99.90
13256;DHT22;37913;48.370;10.930;2023-02-01T01:28:56;2.50;99.90
13256;DHT22;37913;48.370;10.930;2023-02-01T01:31:24;2.50;99.90
13256;DHT22;37913;48.370;10.930;2023-02-01T01:33:53;2.50;99.90
13256;DHT22;37913;48.370;10.930;2023-02-01T01:36:21;2.70;99.90
13256;DHT22;37913;48.370;10.930;2023-02-01T01:38:48;2.60;99.90
13256;DHT22;37913;48.370;10.930;2023-02-01T01:41:17;2.60;99.90
13256;DHT22;37913;48.370;10.930;2023-02-01T01:43:50;2.60;99.90
13256;DHT22;37913;48.370;10.930;2023-02-01T01:46:20;2.50;99.90
13256;DHT22;37913;48.370;10.930;2023-02-01T01:48:50;2.40;99.90
13256;DHT22;37913;48.370;10.930;2023-02-01T01:51:21;2.40;99.90
13256;DHT22;37913;48.370;10.930;2023-02-01T01:53:55;2.40;99.90
13256;DHT22;37913;48.370;10.930;2023-02-01T01:56:23;2.40;99.90
13256;DHT22;37913;48.370;10.930;2023-02-01T01:58:52;2.20;99.90
13256;DHT22;37913;48.370;10.930;2023-02-01T02:01:20;2.20;99.90
13256;DHT22;37913;48.370;10.930;2023-02-01T02:03:49;2.00;99.90
13256;DHT22;37913;48.370;10.930;2023-02-01T02:06:25;2.10;99.90
13256;DHT22;37913;48.370;10.930;2023-02-01T02:08:54;2.00;99.90
13256;DHT22;37913;48.370;10.930;2023-02-01T02:11:21;1.90;99.90
13256;DHT22;37913;48.370;10.930;2023-02-01T02:13:50;3.00;99.90
13256;DHT22;37913;48.370;10.930;2023-02-01T02:16:37;2.20;99.90
13256;DHT22;37913;48.370;10.930;2023-02-01T02:19:30;2.40;99.90
13256;DHT22;37913;48.370;10.930;2023-02-01T02:22:19;2.40;99.90
13256;DHT22;37913;48.370;10.930;2023-02-01T02:25:15;2.40;99.90
13256;DHT22;37913;48.370;10.930;2023-02-01T02:27:50;2.40;99.90
13256;DHT22;37913;48.370;10.930;2023-02-01T02:30:46;2.40;99.90
13256;DHT22;37913;48.370;10.930;2023-02-01T02:33:52;2.60;99.90
13256;DHT22;37913;48.370;10.930;2023-02-01T02:36:35;2.50;99.90
13256;DHT22;37913;48.370;10.930;2023-02-01T02:39:07;2.50;99.90
13256;DHT22;37913;48.370;10.930;2023-02-01T02:41:46;2.50;99.90
13256;DHT22;37913;48.370;10.930;2023-02-01T02:44:35;2.40;99.90
13256;DHT22;37913;48.370;10.930;2023-02-01T02:47:24;2.50;99.90
13256;DHT22;37913;48.370;10.930;2023-02-01T02:50:02;2.50;99.90
13256;DHT22;37913;48.370;10.930;2023-02-01T02:52:53;2.50;99.90
13256;DHT22;37913;48.370;10.930;2023-02-01T02:55:40;2.50;99.90
13256;DHT22;37913;48.370;10.930;2023-02-01T02:58:08;2.40;99.90
13256;DHT22;37913;48.370;10.930;2023-02-01T03:00:55;2.40;99.90
13256;DHT22;37913;48.370;10.930;2023-02-01T03:03:40;2.30;99.90
13256;DHT22;37913;48.370;10.930;2023-02-01T03:06:26;2.40;99.90
13256;DHT22;37913;48.370;10.930;2023-02-01T03:08:55;2.50;99.90
13256;DHT22;37913;48.370;10.930;2023-02-01T03:11:24;2.50;99.90
13256;DHT22;37913;48.370;10.930;2023-02-01T03:14:14;2.60;99.90
13256;DHT22;37913;48.370;10.930;2023-02-01T03:16:46;2.60;99.90
13256;DHT22;37913;48.370;10.930;2023-02-01T03:19:19;2.60;99.90
13256;DHT22;37913;48.370;10.930;2023-02-01T03:21:51;2.90;99.90
13256;DHT22;37913;48.370;10.930;2023-02-01T03:24:23;2.70;99.90
13256;DHT22;37913;48.370;10.930;2023-02-01T03:27:03;2.80;99.90
13256;DHT22;37913;48.370;10.930;2023-02-01T03:29:38;2.80;99.90
13256;DHT22;37913;48.370;10.930;2023-02-01T03:32:06;2.80;99.90
13256;DHT22;37913;48.370;10.930;2023-02-01T03:34:35;2.80;99.90
13256;DHT22;37913;48.370;10.930;2023-02-01T03:37:06;2.90;99.90
13256;DHT22;37913;48.370;10.930;2023-02-01T03:39:38;2.90;99.90
13256;DHT22;37913;48.370;10.930;2023-02-01T03:42:10;2.80;99.90
13256;DHT22;37913;48.370;10.930;2023-02-01T03:44:45;2.80;99.90
13256;DHT22;37913;48.370;10.930;2023-02-01T03:47:15;3.40;99.90
13256;DHT22;37913;48.370;10.930;2023-02-01T03:49:48;2.80;99.90
13256;DHT22;37913;48.370;10.930;2023-02-01T03:52:21;2.90;99.90
13256;DHT22;37913;48.370;10.930;2023-02-01T03:54:49;2.80;99.90
13256;DHT22;37913;48.370;10.930;2023-02-01T03:57:20;2.80;99.90
13256;DHT22;37913;48.370;10.930;2023-02-01T03:59:49;3.70;99.90
13256;DHT22;37913;48.370;10.930;2023-02-01T04:02:16;3.00;99.90
13256;DHT22;37913;48.370;10.930;2023-02-01T04:04:43;3.00;99.90
13256;DHT22;37913;48.370;10.930;2023-02-01T04:07:11;3.20;99.90
13256;DHT22;37913;48.370;10.930;2023-02-01T04:09:39;3.10;99.90
13256;DHT22;37913;48.370;10.930;2023-02-01T04:12:07;3.10;99.90
13256;DHT22;37913;48.370;10.930;2023-02-01T04:14:33;3.10;99.90
13256;DHT22;37913;48.370;10.930;2023-02-01T04:17:00;3.50;99.90
13256;DHT22;37913;48.370;10.930;2023-02-01T04:19:27;3.20;99.90
13256;DHT22;37913;48.370;10.930;2023-02-01T04:21:54;3.70;99.90
13256;DHT22;37913;48.370;10.930;2023-02-01T04:24:21;3.40;99.90
13256;DHT22;37913;48.370;10.930;2023-02-01T04:26:49;3.30;99.90
13256;DHT22;37913;48.370;10.930;2023-02-01T04:29:16;3.30;99.90
13256;DHT22;37913;48.370;10.930;2023-02-01T04:31:43;3.30;99.90
13256;DHT22;37913;48.370;10.930;2023-02-01T04:34:12;3.30;99.90
13256;DHT22;37913;48.370;10.930;2023-02-01T04:36:39;3.30;99.90
13256;DHT22;37913;48.370;10.930;2023-02-01T04:39:07;3.60;99.90
13256;DHT22;37913;48.370;10.930;2023-02-01T04:41:35;3.30;99.90
13256;DHT22;37913;48.370;10.930;2023-02-01T04:44:03;3.30;99.90
13256;DHT22;37913;48.370;10.930;2023-02-01T04:46:30;3.30;99.90
13256;DHT22;37913;48.370;10.930;2023-02-01T04:48:57;3.30;99.90
13256;DHT22;37913;48.370;10.930;2023-02-01T04:51:24;3.30;99.90
13256;DHT22;37913;48.370;10.930;2023-02-01T04:53:51;4.60;99.90
13256;DHT22;37913;48.370;10.930;2023-02-01T04:56:18;3.30;99.90
13256;DHT22;37913;48.370;10.930;2023-02-01T04:58:45;3.30;99.90
13256;DHT22;37913;48.370;10.930;2023-02-01T05:01:13;3.40;99.90
13256;DHT22;37913;48.370;10.930;2023-02-01T05:03:40;3.30;99.90
13256;DHT22;37913;48.370;10.930;2023-02-01T05:06:07;3.30;99.90
13256;DHT22;37913;48.370;10.930;2023-02-01T05:08:34;3.20;99.90
13256;DHT22;37913;48.370;10.930;2023-02-01T05:11:01;3.20;99.90
13256;DHT22;37913;48.370;10.930;2023-02-01T05:13:29;3.50;99.90
13256;DHT22;37913;48.370;10.930;2023-02-01T05:16:20;3.20;99.90
13256;DHT22;37913;48.370;10.930;2023-02-01T05:18:47;3.30;99.90
13256;DHT22;37913;48.370;10.930;2023-02-01T05:21:14;3.20;99.90
13256;DHT22;37913;48.370;10.930;2023-02-01T05:23:41;3.30;99.90
13256;DHT22;37913;48.370;10.930;2023-02-01T05:26:22;3.60;99.90
13256;DHT22;37913;48.370;10.930;2023-02-01T05:28:49;3.30;99.90
13256;DHT22;37913;48.370;10.930;2023-02-01T05:31:16;3.30;99.90
13256;DHT22;37913;48.370;10.930;2023-02-01T05:33:44;3.30;99.90
13256;DHT22;37913;48.370;10.930;2023-02-01T05:36:11;3.30;99.90
13256;DHT22;37913;48.370;10.930;2023-02-01T05:38:38;3.30;99.90
13256;DHT22;37913;48.370;10.930;2023-02-01T05:41:05;3.30;99.90
13256;DHT22;37913;48.370;10.930;2023-02-01T05:43:32;3.30;99.90
13256;DHT22;37913;48.370;10.930;2023-02-01T05:45:59;3.40;99.90
13256;DHT22;37913;48.370;10.930;2023-02-01T05:48:26;3.40;99.90
13256;DHT22;37913;48.370;10.930;2023-02-01T05:50:54;3.30;99.90
13256;DHT22;37913;48.370;10.930;2023-02-01T05:53:22;3.40;99.90
13256;DHT22;37913;48.370;10.930;2023-02-01T05:55:48;3.50;99.90
13256;DHT22;37913;48.370;10.930;2023-02-01T05:58:15;3.40;99.90
13256;DHT22;37913;48.370;10.930;2023-02-01T06:00:42;3.40;99.90
13256;DHT22;37913;48.370;10.930;2023-02-01T06:03:09;3.40;99.90
13256;DHT22;37913;48.370;10.930;2023-02-01T06:05:36;3.40;99.90
13256;DHT22;37913;48.370;10.930;2023-02-01T06:08:05;3.40;99.90
13256;DHT22;37913;48.370;10.930;2023-02-01T06:10:33;3.40;99.90
13256;DHT22;37913;48.370;10.930;2023-02-01T06:13:00;3.50;99.90
13256;DHT22;37913;48.370;10.930;2023-02-01T06:15:28;3.50;99.90
13256;DHT22;37913;48.370;10.930;2023-02-01T06:17:56;3.40;99.90
13256;DHT22;37913;48.370;10.930;2023-02-01T06:20:23;3.50;99.90
13256;DHT22;37913;48.370;10.930;2023-02-01T06:22:50;3.80;99.90
13256;DHT22;37913;48.370;10.930;2023-02-01T06:25:19;3.70;99.90
13256;DHT22;37913;48.370;10.930;2023-02-01T06:27:47;3.50;99.90
13256;DHT22;37913;48.370;10.930;2023-02-01T06:30:14;3.50;99.90
13256;DHT22;37913;48.370;10.930;2023-02-01T06:32:42;3.60;99.90
13256;DHT22;37913;48.370;10.930;2023-02-01T06:35:09;3.50;99.90
13256;DHT22;37913;48.370;10.930;2023-02-01T06:37:41;3.50;99.90
13256;DHT22;37913;48.370;10.930;2023-02-01T06:40:10;3.80;99.90
13256;DHT22;37913;48.370;10.930;2023-02-01T06:42:38;3.60;99.90
13256;DHT22;37913;48.370;10.930;2023-02-01T06:45:06;3.50;99.90
13256;DHT22;37913;48.370;10.930;2023-02-01T06:47:33;3.60;99.90
13256;DHT22;37913;48.370;10.930;2023-02-01T06:50:00;3.60;99.90
13256;DHT22;37913;48.370;10.930;2023-02-01T06:52:27;3.60;99.90
13256;DHT22;37913;48.370;10.930;2023-02-01T06:54:54;4.10;99.90
13256;DHT22;37913;48.370;10.930;2023-02-01T06:57:21;3.60;99.90
13256;DHT22;37913;48.370;10.930;2023-02-01T06:59:51;3.60;99.90
13256;DHT22;37913;48.370;10.930;2023-02-01T07:02:17;3.60;99.90
13256;DHT22;37913;48.370;10.930;2023-02-01T07:04:44;3.70;99.90
13256;DHT22;37913;48.370;10.930;2023-02-01T07:07:11;3.60;99.90
13256;DHT22;37913;48.370;10.930;2023-02-01T07:09:38;3.70;99.90
13256;DHT22;37913;48.370;10.930;2023-02-01T07:12:06;3.70;99.90
13256;DHT22;37913;48.370;10.930;2023-02-01T07:14:33;3.80;99.90
13256;DHT22;37913;48.370;10.930;2023-02-01T07:17:01;3.90;99.90
13256;DHT22;37913;48.370;10.930;2023-02-01T07:19:35;4.10;99.90
13256;DHT22;37913;48.370;10.930;2023-02-01T07:22:02;3.80;99.90
13256;DHT22;37913;48.370;10.930;2023-02-01T07:24:29;3.80;99.90
13256;DHT22;37913;48.370;10.930;2023-02-01T07:26:58;3.80;99.90
13256;DHT22;37913;48.370;10.930;2023-02-01T07:29:25;3.90;99.90
13256;DHT22;37913;48.370;10.930;2023-02-01T07:31:52;3.90;99.90
13256;DHT22;37913;48.370;10.930;2023-02-01T07:34:21;4.20;99.90
13256;DHT22;37913;48.370;10.930;2023-02-01T07:36:50;4.00;99.90
13256;DHT22;37913;48.370;10.930;2023-02-01T07:39:17;4.00;99.90
13256;DHT22;37913;48.370;10.930;2023-02-01T07:41:44;4.20;99.90
13256;DHT22;37913;48.370;10.930;2023-02-01T07:44:11;4.10;99.90
13256;DHT22;37913;48.370;10.930;2023-02-01T07:46:38;4.10;99.90
13256;DHT22;37913;48.370;10.930;2023-02-01T07:49:06;4.10;99.90
13256;DHT22;37913;48.370;10.930;2023-02-01T07:51:37;4.10;99.90
13256;DHT22;37913;48.370;10.930;2023-02-01T07:54:05;4.20;99.90
13256;DHT22;37913;48.370;10.930;2023-02-01T07:56:32;4.30;99.90
13256;DHT22;37913;48.370;10.930;2023-02-01T07:58:59;4.20;99.90
13256;DHT22;37913;48.370;10.930;2023-02-01T08:01:28;4.30;99.90
13256;DHT22;37913;48.370;10.930;2023-02-01T08:03:58;4.30;99.90
13256;DHT22;37913;48.370;10.930;2023-02-01T08:06:28;4.40;99.90
13256;DHT22;37913;48.370;10.930;2023-02-01T08:08:56;4.50;99.90
13256;DHT22;37913;48.370;10.930;2023-02-01T08:11:25;4.20;99.90
13256;DHT22;37913;48.370;10.930;2023-02-01T08:13:53;4.50;99.90
13256;DHT22;37913;48.370;10.930;2023-02-01T08:16:21;4.50;99.90
13256;DHT22;37913;48.370;10.930;2023-02-01T08:18:49;4.50;99.90
13256;DHT22;37913;48.370;10.930;2023-02-01T08:21:18;4.50;99.90
13256;DHT22;37913;48.370;10.930;2023-02-01T08:23:46;4.50;99.90
13256;DHT22;37913;48.370;10.930;2023-02-01T08:26:24;4.50;99.90
13256;DHT22;37913;48.370;10.930;2023-02-01T08:28:53;4.70;99.90
13256;DHT22;37913;48.370;10.930;2023-02-01T08:31:23;4.60;99.90
13256;DHT22;37913;48.370;10.930;2023-02-01T08:33:53;5.30;99.90
13256;DHT22;37913;48.370;10.930;2023-02-01T08:36:29;4.70;99.90
13256;DHT22;37913;48.370;10.930;2023-02-01T08:38:57;4.80;99.90
13256;DHT22;37913;48.370;10.930;2023-02-01T08:41:28;4.80;99.90
13256;DHT22;37913;48.370;10.930;2023-02-01T08:43:56;4.80;99.90
13256;DHT22;37913;48.370;10.930;2023-02-01T08:46:29;4.70;99.90
13256;DHT22;37913;48.370;10.930;2023-02-01T08:48:57;4.90;99.90
13256;DHT22;37913;48.370;10.930;2023-02-01T08:51:24;4.90;99.90
13256;DHT22;37913;48.370;10.930;2023-02-01T08:53:56;4.90;99.90
13256;DHT22;37913;48.370;10.930;2023-02-01T08:56:23;4.90;99.90
13256;DHT22;37913;48.370;10.930;2023-02-01T08:58:53;5.00;99.90
13256;DHT22;37913;48.370;10.930;2023-02-01T09:01:20;5.00;99.90
13256;DHT22;37913;48.370;10.930;2023-02-01T09:03:47;5.10;99.90
13256;DHT22;37913;48.370;10.930;2023-02-01T09:06:15;5.00;99.90
13256;DHT22;37913;48.370;10.930;2023-02-01T09:08:43;4.80;99.90
13256;DHT22;37913;48.370;10.930;2023-02-01T09:11:14;5.20;99.90
13256;DHT22;37913;48.370;10.930;2023-02-01T09:13:48;5.30;99.90
13256;DHT22;37913;48.370;10.930;2023-02-01T09:16:24;5.30;99.90
13256;DHT22;37913;48.370;10.930;2023-02-01T09:18:53;5.50;99.90
13256;DHT22;37913;48.370;10.930;2023-02-01T09:21:21;5.50;99.90
13256;DHT22;37913;48.370;10.930;2023-02-01T09:23:50;5.70;99.90
13256;DHT22;37913;48.370;10.930;2023-02-01T09:26:17;5.70;99.90
13256;DHT22;37913;48.370;10.930;2023-02-01T09:28:45;5.60;99.90
13256;DHT22;37913;48.370;10.930;2023-02-01T09:31:13;5.70;99.90
13256;DHT22;37913;48.370;10.930;2023-02-01T09:33:42;5.80;99.90
13256;DHT22;37913;48.370;10.930;2023-02-01T09:36:09;5.70;99.90
13256;DHT22;37913;48.370;10.930;2023-02-01T09:38:36;5.60;99.90
13256;DHT22;37913;48.370;10.930;2023-02-01T09:41:10;5.50;99.90
13256;DHT22;37913;48.370;10.930;2023-02-01T09:43:54;5.40;99.90
13256;DHT22;37913;48.370;10.930;2023-02-01T09:46:28;5.60;99.90
13256;DHT22;37913;48.370;10.930;2023-02-01T09:48:59;5.70;99.90
13256;DHT22;37913;48.370;10.930;2023-02-01T09:51:32;5.80;99.90
13256;DHT22;37913;48.370;10.930;2023-02-01T09:54:02;5.80;99.90
13256;DHT22;37913;48.370;10.930;2023-02-01T09:56:35;5.60;99.90
13256;DHT22;37913;48.370;10.930;2023-02-01T09:59:09;5.70;99.90
13256;DHT22;37913;48.370;10.930;2023-02-01T10:01:37;5.80;99.90
13256;DHT22;37913;48.370;10.930;2023-02-01T10:04:09;5.70;99.90
13256;DHT22;37913;48.370;10.930;2023-02-01T10:06:57;5.70;99.90
13256;DHT22;37913;48.370;10.930;2023-02-01T10:09:41;5.60;99.90
13256;DHT22;37913;48.370;10.930;2023-02-01T10:12:39;5.80;99.90
13256;DHT22;37913;48.370;10.930;2023-02-01T10:15:26;5.60;99.90
13256;DHT22;37913;48.370;10.930;2023-02-01T10:20:54;5.80;99.90
13256;DHT22;37913;48.370;10.930;2023-02-01T10:26:18;5.50;99.90
13256;DHT22;37913;48.370;10.930;2023-02-01T10:28:48;5.60;99.90
13256;DHT22;37913;48.370;10.930;2023-02-01T10:31:16;5.70;99.90
13256;DHT22;37913;48.370;10.930;2023-02-01T10:33:47;5.70;99.90
13256;DHT22;37913;48.370;10.930;2023-02-01T10:36:21;5.60;99.90
13256;DHT22;37913;48.370;10.930;2023-02-01T10:38:48;5.70;99.90
13256;DHT22;37913;48.370;10.930;2023-02-01T10:41:17;5.40;99.90
13256;DHT22;37913;48.370;10.930;2023-02-01T10:43:49;5.70;99.90
13256;DHT22;37913;48.370;10.930;2023-02-01T10:46:17;5.60;99.90
13256;DHT22;37913;48.370;10.930;2023-02-01T10:48:45;5.60;99.90
13256;DHT22;37913;48.370;10.930;2023-02-01T10:51:19;5.60;99.90
13256;DHT22;37913;48.370;10.930;2023-02-01T10:53:52;5.40;99.90
13256;DHT22;37913;48.370;10.930;2023-02-01T10:56:23;5.40;99.90
13256;DHT22;37913;48.370;10.930;2023-02-01T10:59:00;5.30;99.90
13256;DHT22;37913;48.370;10.930;2023-02-01T11:01:30;5.20;99.90
13256;DHT22;37913;48.370;10.930;2023-02-01T11:04:01;5.40;99.90
13256;DHT22;37913;48.370;10.930;2023-02-01T11:06:33;5.30;99.90
13256;DHT22;37913;48.370;10.930;2023-02-01T11:09:08;5.40;99.90
13256;DHT22;37913;48.370;10.930;2023-02-01T11:11:55;5.40;99.90
13256;DHT22;37913;48.370;10.930;2023-02-01T11:14:32;5.40;99.90
13256;DHT22;37913;48.370;10.930;2023-02-01T11:17:01;5.40;99.90
13256;DHT22;37913;48.370;10.930;2023-02-01T11:19:28;5.30;99.90
13256;DHT22;37913;48.370;10.930;2023-02-01T11:21:59;5.30;99.90
13256;DHT22;37913;48.370;10.930;2023-02-01T11:24:28;5.10;99.90
13256;DHT22;37913;48.370;10.930;2023-02-01T11:26:59;5.20;99.90
13256;DHT22;37913;48.370;10.930;2023-02-01T11:29:30;5.10;99.90
13256;DHT22;37913;48.370;10.930;2023-02-01T11:32:00;5.10;99.90
13256;DHT22;37913;48.370;10.930;2023-02-01T11:34:36;5.20;99.90
13256;DHT22;37913;48.370;10.930;2023-02-01T11:37:18;5.30;99.90
13256;DHT22;37913;48.370;10.930;2023-02-01T11:39:54;5.40;99.90
13256;DHT22;37913;48.370;10.930;2023-02-01T11:42:21;5.30;99.90
13256;DHT22;37913;48.370;10.930;2023-02-01T11:44:48;5.30;99.90
13256;DHT22;37913;48.370;10.930;2023-02-01T11:47:24;5.50;99.90
13256;DHT22;37913;48.370;10.930;2023-02-01T11:49:53;5.40;99.90
13256;DHT22;37913;48.370;10.930;2023-02-01T11:52:35;5.30;99.90
13256;DHT22;37913;48.370;10.930;2023-02-01T11:55:36;5.30;99.90
13256;DHT22;37913;48.370;10.930;2023-02-01T11:58:23;5.00;99.90
13256;DHT22;37913;48.370;10.930;2023-02-01T12:01:03;5.00;99.90
13256;DHT22;37913;48.370;10.930;2023-02-01T12:06:44;5.00;99.90
13256;DHT22;37913;48.370;10.930;2023-02-01T12:09:33;4.90;99.90
13256;DHT22;37913;48.370;10.930;2023-02-01T12:12:08;4.80;99.90
13256;DHT22;37913;48.370;10.930;2023-02-01T12:14:56;4.90;99.90
13256;DHT22;37913;48.370;10.930;2023-02-01T12:18:01;5.00;99.90
13256;DHT22;37913;48.370;10.930;2023-02-01T12:20:49;4.90;99.90
13256;DHT22;37913;48.370;10.930;2023-02-01T12:23:27;4.90;99.90
13256;DHT22;37913;48.370;10.930;2023-02-01T12:26:13;5.00;99.90
13256;DHT22;37913;48.370;10.930;2023-02-01T12:29:08;5.20;99.90
13256;DHT22;37913;48.370;10.930;2023-02-01T12:31:46;5.00;99.90
13256;DHT22;37913;48.370;10.930;2023-02-01T12:34:46;5.00;99.90
13256;DHT22;37913;48.370;10.930;2023-02-01T12:37:24;5.00;99.90
13256;DHT22;37913;48.370;10.930;2023-02-01T12:40:01;5.20;99.90
13256;DHT22;37913;48.370;10.930;2023-02-01T12:42:36;5.20;99.90
13256;DHT22;37913;48.370;10.930;2023-02-01T12:45:13;5.30;99.90
13256;DHT22;37913;48.370;10.930;2023-02-01T12:47:45;5.20;99.90
13256;DHT22;37913;48.370;10.930;2023-02-01T12:50:18;5.20;99.90
13256;DHT22;37913;48.370;10.930;2023-02-01T12:52:49;5.10;99.90
13256;DHT22;37913;48.370;10.930;2023-02-01T12:55:20;5.20;99.90
13256;DHT22;37913;48.370;10.930;2023-02-01T12:57:52;5.30;99.90
13256;DHT22;37913;48.370;10.930;2023-02-01T13:00:26;5.20;99.90
13256;DHT22;37913;48.370;10.930;2023-02-01T13:02:59;5.30;99.90
13256;DHT22;37913;48.370;10.930;2023-02-01T13:05:33;5.40;99.90
13256;DHT22;37913;48.370;10.930;2023-02-01T13:08:09;5.40;99.90
13256;DHT22;37913;48.370;10.930;2023-02-01T13:10:40;5.40;99.90
13256;DHT22;37913;48.370;10.930;2023-02-01T13:13:14;5.50;99.90
13256;DHT22;37913;48.370;10.930;2023-02-01T13:15:48;5.40;99.90
13256;DHT22;37913;48.370;10.930;2023-02-01T13:18:19;5.50;99.90
13256;DHT22;37913;48.370;10.930;2023-02-01T13:20:54;5.50;99.90
13256;DHT22;37913;48.370;10.930;2023-02-01T13:23:26;5.50;99.90
13256;DHT22;37913;48.370;10.930;2023-02-01T13:25:55;5.30;99.90
13256;DHT22;37913;48.370;10.930;2023-02-01T13:28:27;5.40;99.90
13256;DHT22;37913;48.370;10.930;2023-02-01T13:31:09;5.30;99.90
13256;DHT22;37913;48.370;10.930;2023-02-01T13:33:58;5.30;99.90
13256;DHT22;37913;48.370;10.930;2023-02-01T13:40:09;5.50;99.90
13256;DHT22;37913;48.370;10.930;2023-02-01T13:42:47;5.60;99.90
13256;DHT22;37913;48.370;10.930;2023-02-01T13:45:19;5.50;99.90
13256;DHT22;37913;48.370;10.930;2023-02-01T13:47:50;5.70;99.90
13256;DHT22;37913;48.370;10.930;2023-02-01T13:50:23;5.60;99.90
13256;DHT22;37913;48.370;10.930;2023-02-01T13:52:54;5.50;99.90
13256;DHT22;37913;48.370;10.930;2023-02-01T13:55:31;5.40;99.90
13256;DHT22;37913;48.370;10.930;2023-02-01T14:00:45;5.10;99.90
13256;DHT22;37913;48.370;10.930;2023-02-01T14:03:20;5.30;99.90
13256;DHT22;37913;48.370;10.930;2023-02-01T14:06:15;4.80;99.90
13256;DHT22;37913;48.370;10.930;2023-02-01T14:08:45;4.70;99.90
13256;DHT22;37913;48.370;10.930;2023-02-01T14:11:48;4.70;99.90
13256;DHT22;37913;48.370;10.930;2023-02-01T14:14:48;4.40;99.90
13256;DHT22;37913;48.370;10.930;2023-02-01T14:17:37;4.50;99.90
13256;DHT22;37913;48.370;10.930;2023-02-01T14:23:29;4.40;99.90
13256;DHT22;37913;48.370;10.930;2023-02-01T14:26:08;4.30;99.90
13256;DHT22;37913;48.370;10.930;2023-02-01T14:28:41;4.40;99.90
13256;DHT22;37913;48.370;10.930;2023-02-01T14:31:39;4.40;99.90
13256;DHT22;37913;48.370;10.930;2023-02-01T14:34:18;4.40;99.90
13256;DHT22;37913;48.370;10.930;2023-02-01T14:36:51;4.40;99.90
13256;DHT22;37913;48.370;10.930;2023-02-01T14:39:30;4.40;99.90
13256;DHT22;37913;48.370;10.930;2023-02-01T14:42:01;4.40;99.90
13256;DHT22;37913;48.370;10.930;2023-02-01T14:44:33;4.50;99.90
13256;DHT22;37913;48.370;10.930;2023-02-01T14:50:29;4.50;99.90
13256;DHT22;37913;48.370;10.930;2023-02-01T14:53:10;4.60;99.90
13256;DHT22;37913;48.370;10.930;2023-02-01T14:55:42;4.60;99.90
13256;DHT22;37913;48.370;10.930;2023-02-01T14:58:16;4.70;99.90
13256;DHT22;37913;48.370;10.930;2023-02-01T15:00:51;4.70;99.90
13256;DHT22;37913;48.370;10.930;2023-02-01T15:06:31;4.80;99.90
13256;DHT22;37913;48.370;10.930;2023-02-01T15:09:01;4.90;99.90
13256;DHT22;37913;48.370;10.930;2023-02-01T15:11:29;5.00;99.90
13256;DHT22;37913;48.370;10.930;2023-02-01T15:13:56;5.00;99.90
13256;DHT22;37913;48.370;10.930;2023-02-01T15:16:27;5.10;99.90
13256;DHT22;37913;48.370;10.930;2023-02-01T15:19:09;5.10;99.90
13256;DHT22;37913;48.370;10.930;2023-02-01T15:21:46;5.10;99.90
13256;DHT22;37913;48.370;10.930;2023-02-01T15:24:17;5.10;99.90
13256;DHT22;37913;48.370;10.930;2023-02-01T15:26:45;5.10;99.90
13256;DHT22;37913;48.370;10.930;2023-02-01T15:29:13;5.20;99.90
13256;DHT22;37913;48.370;10.930;2023-02-01T15:31:42;5.10;99.90
13256;DHT22;37913;48.370;10.930;2023-02-01T15:34:10;5.10;99.90
13256;DHT22;37913;48.370;10.930;2023-02-01T15:36:38;5.10;99.90
13256;DHT22;37913;48.370;10.930;2023-02-01T15:39:15;5.10;99.90
13256;DHT22;37913;48.370;10.930;2023-02-01T15:41:46;5.10;99.90
13256;DHT22;37913;48.370;10.930;2023-02-01T15:44:19;5.10;99.90
13256;DHT22;37913;48.370;10.930;2023-02-01T15:46:48;5.00;99.90
13256;DHT22;37913;48.370;10.930;2023-02-01T15:49:25;5.00;99.90
13256;DHT22;37913;48.370;10.930;2023-02-01T15:51:53;5.00;99.90
13256;DHT22;37913;48.370;10.930;2023-02-01T15:54:26;4.90;99.90
13256;DHT22;37913;48.370;10.930;2023-02-01T15:56:58;4.80;99.90
13256;DHT22;37913;48.370;10.930;2023-02-01T15:59:30;4.80;99.90
13256;DHT22;37913;48.370;10.930;2023-02-01T16:01:58;4.80;99.90
13256;DHT22;37913;48.370;10.930;2023-02-01T16:04:26;4.80;99.90
13256;DHT22;37913;48.370;10.930;2023-02-01T16:06:57;4.70;99.90
13256;DHT22;37913;48.370;10.930;2023-02-01T16:09:36;4.80;99.90
13256;DHT22;37913;48.370;10.930;2023-02-01T16:12:04;4.80;99.90
13256;DHT22;37913;48.370;10.930;2023-02-01T16:14:47;4.70;99.90
13256;DHT22;37913;48.370;10.930;2023-02-01T16:17:14;4.70;99.90
13256;DHT22;37913;48.370;10.930;2023-02-01T16:19:41;4.60;99.90
13256;DHT22;37913;48.370;10.930;2023-02-01T16:22:08;4.60;99.90
13256;DHT22;37913;48.370;10.930;2023-02-01T16:24:36;4.60;99.90